• Join FlightAware (Why Join?)
  • Login
  • US Flag 
01:22PM EDT


 

Airport Tracker/Info


-or-


 

Live Flight TrackerFlight Track Log ✈ SWA1035 ✈ 07-Apr-2014 ✈ KRSW - KBWI

Flight Track Log - Related Links

Times and Time Zones

All times are in EDT time to prevent confusion due to time zone crossing. See the SWA1035 flight status page for this flight to view local times or setup timezone preferences in your user account.

Time Position Orientation Groundspeed Altitude Reporting Facility
EDT Latitude Longitude Course Direction KTS MPH feet Rate Location/Type
07:35PM 26.5319 -81.9042 318° Northwest 256 295 6,500  Level Miami Center
07:36PM 26.6169 -81.9194 351° North 244 281 9,900 3,240 Climbing Miami Center
07:37PM 26.7133 -81.9097 North 273 314 13,000 3,180 Climbing Miami Center
07:38PM 26.8128 -81.8719 19° North 340 391 16,300 2,940 Climbing Miami Center
07:39PM 26.9111 -81.8086 30° Northeast 371 427 18,900 2,700 Climbing Miami Center
07:40PM 27.3195 -81.8362 318° Northwest  Level FlightAware Approximate
07:40PM 27.0297 -81.7556 22° Northeast 387 445 21,800  Level Miami Center
07:41PM 27.1414 -81.7836 347° North 384 442 24,400 2,460 Climbing Miami Center
07:42PM 27.2431 -81.8042 350° North 401 461 26,800 2,040 Climbing Miami Center
07:43PM 27.3675 -81.7675 15° North 430 495 28,500 1,860 Climbing Miami Center
07:44PM 27.5111 -81.7128 19° North 475 547 30,600 1,200 Climbing Miami Center
07:45PM 27.6442 -81.6669 17° North 492 566 31,000 180 Climbing Miami Center
07:46PM 27.7753 -81.6183 18° North 492 566 31,000  Level Miami Center
07:47PM 27.9119 -81.5842 12° North 498 573 31,000  Level Miami Center
07:48PM 28.0414 -81.5825 North 477 549 31,000  Level Miami Center
07:49PM 28.1750 -81.5786 North 477 549 31,000  Level Miami Center
07:50PM 28.3067 -81.5725 North 477 549 31,000  Level Miami Center
07:51PM 28.4236 -81.5703 North 477 549 31,000  Level Miami Center
07:52PM 28.6064 -81.5636 North 500 575 31,000  Level Jacksonville Center
07:53PM 28.7400 -81.5619 North 488 562 31,000  Level Jacksonville Center
07:54PM 28.8714 -81.5578 North 476 548 31,000  Level Jacksonville Center
07:55PM 29.0069 -81.5536 North 476 548 31,000 360 Level Jacksonville Center
07:56PM 29.1406 -81.5494 North 476 548 31,800 1,800 Climbing Jacksonville Center
07:57PM 29.2533 -81.5503 360° North 469 540 34,700 2,160 Climbing Jacksonville Center
07:58PM 29.3783 -81.5461 North 455 524 36,100 1,200 Climbing Jacksonville Center
07:59PM 29.5036 -81.5397 North 450 518 37,100 960 Climbing Jacksonville Center
08:00PM 29.6331 -81.5331 North 450 518 38,100 960 Climbing Jacksonville Center
08:01PM 29.7622 -81.5289 North 455 524 39,100 960 Climbing Jacksonville Center
08:02PM 29.8897 -81.5247 North 455 524 40,100 900 Climbing Jacksonville Center
08:03PM 30.0169 -81.5228 North 455 524 41,000 420 Climbing Jacksonville Center
08:04PM 30.1547 -81.5161 North 455 524 41,000  Level Jacksonville Center
08:05PM 30.2800 -81.5119 North 455 524 41,000  Level Jacksonville Center
08:06PM 30.4050 -81.5028 North 455 524 41,000  Level Jacksonville Center
08:07PM 30.5303 -81.4961 North 455 524 41,000  Level Jacksonville Center
08:08PM 30.6553 -81.4656 12° North 450 518 41,000  Level Jacksonville Center
08:09PM 30.7714 -81.3911 29° Northeast 453 521 41,000  Level Jacksonville Center
08:10PM 30.8872 -81.3167 29° Northeast 459 528 41,000  Level Jacksonville Center
08:11PM 31.0033 -81.2397 30° Northeast 464 534 41,000  Level Jacksonville Center
08:12PM 31.1211 -81.1622 29° Northeast 475 547 41,000  Level Jacksonville Center
08:13PM 31.2350 -81.0850 30° Northeast 473 544 41,000  Level Jacksonville Center
08:14PM 31.3508 -81.0097 29° Northeast 473 544 41,000  Level Jacksonville Center
08:15PM 31.4708 -80.9317 29° Northeast 480 552 41,000  Level Jacksonville Center
08:16PM 31.5906 -80.8536 29° Northeast 480 552 41,000 -480 Level Jacksonville Center
08:17PM 31.6981 -80.7828 29° Northeast 480 552 40,100 -900 Descending Jacksonville Center
08:18PM 31.8342 -80.6917 30° Northeast 497 572 39,200 -600 Descending Jacksonville Center
08:19PM 31.9436 -80.6181 30° Northeast 497 572 39,000 -120 Descending Jacksonville Center
08:20PM 32.0819 -80.5289 29° Northeast 497 572 39,000  Level Jacksonville Center
08:21PM 32.2033 -80.4447 30° Northeast 497 572 39,000  Level Jacksonville Center
08:22PM 32.3269 -80.3603 30° Northeast 502 578 39,000  Level Jacksonville Center
08:23PM 32.4506 -80.2781 29° Northeast 497 572 39,000  Level Jacksonville Center
08:24PM 32.5719 -80.1958 30° Northeast 497 572 39,000  Level Jacksonville Center
08:25PM 32.6914 -80.1133 30° Northeast 497 572 39,000  Level Jacksonville Center
08:26PM 32.8147 -80.0303 30° Northeast 497 572 39,000  Level Jacksonville Center
08:27PM 32.9256 -79.9525 30° Northeast 497 572 39,000  Level Jacksonville Center
08:28PM 33.0469 -79.8717 29° Northeast 497 572 39,000  Level Jacksonville Center
08:29PM 33.1681 -79.7883 30° Northeast 497 572 39,000  Level Jacksonville Center
08:30PM 33.2892 -79.7044 30° Northeast 497 572 39,000  Level Jacksonville Center
08:31PM 33.4100 -79.6231 29° Northeast 497 572 39,000  Level Jacksonville Center
08:32PM 33.5311 -79.5389 30° Northeast 497 572 39,000  Level Jacksonville Center
08:33PM 33.6517 -79.4519 31° Northeast 497 572 39,000  Level Jacksonville Center
08:34PM 33.7728 -79.3722 29° Northeast 491 565 39,000  Level Jacksonville Center
08:35PM 33.8975 -79.2872 29° Northeast 497 572 39,000  Level Jacksonville Center
08:36PM 34.0325 -79.1914 30° Northeast 497 572 39,000  Level Jacksonville Center
08:37PM 34.1614 -79.1033 29° Northeast 502 578 39,000  Level Jacksonville Center
08:39PM 34.4283 -78.9053 31° Northeast 513 590 39,000  Level Washington Center
08:40PM 34.5558 -78.8222 28° Northeast 513 590 39,000  Level Washington Center
08:41PM 34.6828 -78.7567 23° Northeast 506 582 39,000  Level Washington Center
08:42PM 34.8158 -78.6961 20° North 500 575 39,000  Level Washington Center
08:43PM 34.9447 -78.6325 22° Northeast 495 570 39,000  Level Washington Center
08:44PM 35.0736 -78.5689 22° Northeast 495 570 39,000  Level Washington Center
08:45PM 35.2025 -78.5025 23° Northeast 495 570 39,000  Level Washington Center
08:46PM 35.3314 -78.4358 23° Northeast 500 575 39,000 -480 Level Washington Center
08:47PM 35.4772 -78.3594 23° Northeast 500 575 38,100 -900 Descending Washington Center
08:48PM 35.6081 -78.2975 21° North 505 581 37,200 -960 Descending Washington Center
08:49PM 35.7367 -78.2353 21° North 500 575 36,200 -1,500 Descending Washington Center
08:50PM 35.8675 -78.1706 22° Northeast 500 575 34,300 -1,980 Descending Washington Center
08:51PM 36.0003 -78.1031 22° Northeast 500 575 32,300 -2,040 Descending Washington Center
08:52PM 36.1311 -78.0378 22° Northeast 500 575 30,300 -2,040 Descending Washington Center
08:53PM 36.2597 -77.9694 23° Northeast 500 575 28,200 -1,680 Descending Washington Center
08:54PM 36.3842 -77.9061 22° Northeast 489 563 27,000 -660 Descending Washington Center
08:55PM 36.5083 -77.8453 21° North 484 557 27,000  Level Washington Center
08:56PM 36.6306 -77.7789 24° Northeast 479 551 27,000  Level Washington Center
08:57PM 36.7547 -77.7150 22° Northeast 479 551 27,000 -480 Level Washington Center
08:58PM 36.8808 -77.6717 15° North 474 545 26,100 -1,020 Descending Washington Center
08:59PM 36.9961 -77.6333 15° North 474 545 25,000 -1,080 Descending Washington Center
09:00PM 37.1200 -77.5869 17° North 469 540 24,000 -1,020 Descending Washington Center
09:01PM 37.2522 -77.5436 15° North 459 528 23,000 -1,020 Descending Washington Center
09:02PM 37.3739 -77.4997 16° North 448 516 22,000 -540 Descending Washington Center
09:03PM 37.4914 -77.4581 16° North 437 503 22,000  Level Washington Center
09:04PM 37.6067 -77.4164 16° North 437 503 22,000  Level Washington Center
09:05PM 37.7200 -77.3744 16° North 432 497 22,000 -300 Level Washington Center
09:06PM 37.8353 -77.3350 15° North 427 491 21,500 -720 Descending Washington Center
09:07PM 37.9483 -77.2956 15° North 421 484 20,600 -1,020 Descending Washington Center
09:08PM 38.0594 -77.2558 16° North 416 479 19,500 -960 Descending Washington Center
09:09PM 38.1664 -77.2186 15° North 410 472 18,800 -1,500 Descending Washington Center
09:10PM 38.2669 -77.1783 17° North 398 458 16,600 -1,800 Descending Washington Center
09:11PM 38.3675 -77.1408 16° North 379 436 15,300 -1,680 Descending Washington Center
09:12PM 38.4478 -77.0578 39° Northeast 360 414 13,300 -1,680 Descending Washington Center
09:13PM 38.5261 -76.9664 42° Northeast 365 420 12,000 -1,260 Descending Washington Center
09:14PM 38.5939 -76.8800 45° Northeast 360 414 10,800 -1,140 Descending Washington Center
09:15PM 38.6614 -76.7986 43° Northeast 342 394 9,800 -960 Descending Washington Center
09:16PM 38.7183 -76.7197 47° Northeast 325 374 8,900 -1,260 Descending Washington Center
09:18PM 38.7833 -76.5500 64° Northeast 313 360 6,600 -1,320 Descending Potomac TRACON
09:19PM 38.8500 -76.5333 11° North 275 316 5,600 -840 Descending Potomac TRACON
09:20PM 38.9167 -76.5667 339° North 240 276 5,000 -600 Descending Potomac TRACON
09:21PM 38.9667 -76.6000 333° Northwest 201 231 4,400 -540 Descending Potomac TRACON
09:22PM 39.0000 -76.6500 311° West 167 192 4,000 -240 Descending Potomac TRACON
09:23PM 39.0167 -76.7000 293° West 167 192 4,000  Level Potomac TRACON
09:24PM 39.0500 -76.7500 311° West 168 193 4,000  Level Potomac TRACON
09:25PM 39.0667 -76.8167 288° West 170 196 4,000  Level Potomac TRACON
09:26PM 39.0833 -76.8667 293° West 163 188 4,000  Level Potomac TRACON
09:27PM 39.1000 -76.9167 293° West 160 184 4,000 180 Level Potomac TRACON
09:28PM 39.1333 -76.9667 311° West 200 230 4,400 180 Climbing Potomac TRACON
09:29PM 39.2000 -76.9833 349° North 223 257 4,500 -420 Climbing Potomac TRACON
09:30PM 39.2500 -76.9833 360° North 228 262 3,700 -960 Descending Potomac TRACON
09:31PM 39.2500 -76.9333 90° East 200 230 2,700 -600 Descending Potomac TRACON
09:32PM 39.2000 -76.9000 153° Southeast 168 193 2,500 -360 Descending Potomac TRACON
09:33PM 39.1833 -76.8500 113° Southeast 174 200 2,000 -480 Descending Potomac TRACON
09:34PM 39.1833 -76.7833 90° East 176 203 1,700 -540 Descending Potomac TRACON
09:35PM 39.1833 -76.7333 90° East 138 159 1,000 -720 Descending Potomac TRACON